Hlavní strana
METAR-TAF:

METAR-TAF

Letiště :

Hurlburt Field

Mary Esther, Florida, Spojené státy americké

zeměpisná šířka: 30-25N, zeměpisná délka: 086-41W, výška: 12 m

Aktuální stav počasí

Zpráva byla vytvořena před 1 hodinou a 6 minutami, v 09:56 UTC
Bezvětří
Teplota 21°C
Vlhkost vzduchu 94%
Tlak 1019 hPa
Viditelnost: 16.1 km
Jasno

METAR: KHRT 240956Z AUTO 00000KT 10SM CLR 21/20 A3010 RMK AO2 SLP194 T02110196 $

Čas: 06:02 (11:02 UTC)

Předpověď počasí

Zpráva byla vytvořena před 1 hodinou a 2 minutami, v 10:00 UTC
Předpověď platná od 24 v 10 UTC do 25 v 16 UTC
Severovýchodní vítr 3 kt
Viditelnost 10 km a více
Jasno
Změna
od 24 v 17 UTC do 24 v 18 UTC
Jižní vítr 9 kt
Viditelnost 10 km a více
Skoro jasno ve výšce 4000 ft
Změna
od 24 v 23 UTC do 24 v 24 UTC
vítr z různých směrů 5 kt
Viditelnost: 2810 m
Jasno

TAF: KHRT 241000Z 2410/2516 05003KT 9999 SKC QNH3009INS BECMG 2417/2418 17009KT 9999 FEW040 QNH3007INS BECMG 2423/2424 VRB05KT 9999 SKC QNH3007INS LAST NO AMDS AFT 2410 NEXT 2810 TX29/2420Z TN20/2411Z

Stav a předpovědi počasí z více než 4 000 letišť (zprávy METAR a TAF).

Červené a žluté tečky na mapě představují dostupné meteorologické stanice.

Když kurzor umístíte na tečku, zobrazí se název stanice.

Pak kliknutím zobrazíte stav a předpověď počasí.

Chcete-li změnit mapu, kliknutím na zelené tlačítko se znaménkem +mapu přiblížíte, kliknutím na zelené tlačítko se znaménkem – mapu oddálíte a kliknutím na zelené šipky přejdete na sousední mapy.


METAR-TAF: